createdAt,value
2018-07-21T00:01:48.770Z,16.26
2018-07-21T00:04:18.132Z,16.11
2018-07-21T00:06:47.546Z,16.16
2018-07-21T00:09:17.085Z,16.12
2018-07-21T00:11:46.437Z,16.15
2018-07-21T00:14:15.992Z,16.21
2018-07-21T00:16:45.646Z,16.29
2018-07-21T00:19:15.378Z,16.31
2018-07-21T00:21:44.790Z,16.30
2018-07-21T00:24:13.853Z,16.26
2018-07-21T00:26:48.226Z,16.14
2018-07-21T00:29:29.861Z,16.00
2018-07-21T00:33:42.828Z,15.99
2018-07-21T00:36:12.222Z,16.06
2018-07-21T00:38:41.638Z,16.07
2018-07-21T00:41:11.387Z,16.09
2018-07-21T00:43:40.866Z,16.16
2018-07-21T00:46:10.214Z,16.17
2018-07-21T00:48:39.654Z,16.21
2018-07-21T00:51:09.354Z,16.22
2018-07-21T00:53:38.737Z,16.14
2018-07-21T00:56:08.207Z,16.20
2018-07-21T00:58:37.596Z,16.31
2018-07-21T01:01:07.342Z,16.33
2018-07-21T01:03:36.718Z,16.38
2018-07-21T01:06:06.306Z,16.33
2018-07-21T01:11:26.350Z,16.14
2018-07-21T01:13:55.726Z,16.19
2018-07-21T01:16:25.148Z,16.20
2018-07-21T01:18:55.030Z,16.13
2018-07-21T01:21:24.446Z,16.04
2018-07-21T01:23:53.545Z,16.02
2018-07-21T01:26:22.971Z,16.09
2018-07-21T01:28:53.257Z,16.12
2018-07-21T01:31:30.813Z,16.13
2018-07-21T01:34:03.117Z,16.16
2018-07-21T01:36:45.845Z,16.22
2018-07-21T01:39:15.495Z,16.36
2018-07-21T01:41:45.018Z,16.26
2018-07-21T01:44:14.493Z,16.17
2018-07-21T01:46:47.191Z,16.16
2018-07-21T01:49:16.663Z,16.08
2018-07-21T01:51:46.046Z,16.00
2018-07-21T01:54:15.918Z,16.01
2018-07-21T01:56:45.616Z,16.01
2018-07-21T01:59:14.989Z,16.05
2018-07-21T02:01:44.419Z,15.92
2018-07-21T02:04:13.825Z,15.84
2018-07-21T02:06:43.278Z,15.81
2018-07-21T02:09:12.722Z,15.84
2018-07-21T02:11:42.375Z,15.86
2018-07-21T02:14:11.869Z,15.83
2018-07-21T02:16:41.381Z,15.66
2018-07-21T02:19:10.818Z,15.50
2018-07-21T02:21:40.365Z,15.49
2018-07-21T02:24:09.708Z,15.46
2018-07-21T02:26:39.073Z,15.35
2018-07-21T02:29:08.578Z,15.38
2018-07-21T02:32:03.736Z,15.31
2018-07-21T02:35:21.610Z,15.19
2018-07-21T02:37:51.277Z,15.27
2018-07-21T02:40:20.626Z,15.32
2018-07-21T02:42:49.967Z,15.42
2018-07-21T02:45:21.930Z,15.33
2018-07-21T02:47:51.118Z,15.13
2018-07-21T02:50:21.006Z,15.10
2018-07-21T02:53:19.686Z,14.83
2018-07-21T02:55:49.756Z,14.89
2018-07-21T02:58:19.261Z,14.91
2018-07-21T03:00:51.515Z,14.88
2018-07-21T03:03:20.927Z,14.76
2018-07-21T03:06:14.332Z,14.63
2018-07-21T03:08:48.063Z,14.57
2018-07-21T03:11:17.574Z,14.61
2018-07-21T03:13:47.222Z,14.54
2018-07-21T03:16:29.422Z,14.59
2018-07-21T03:21:49.077Z,14.58
2018-07-21T03:24:18.517Z,14.59
2018-07-21T03:26:48.006Z,14.68
2018-07-21T03:29:17.417Z,14.66
2018-07-21T03:31:47.151Z,14.63
2018-07-21T03:34:16.453Z,14.70
2018-07-21T03:36:46.169Z,14.79
2018-07-21T03:39:15.528Z,14.84
2018-07-21T03:41:49.950Z,14.78
2018-07-21T03:44:19.351Z,14.85
2018-07-21T03:46:48.798Z,14.87
2018-07-21T03:49:17.848Z,14.84
2018-07-21T03:51:47.366Z,14.84
2018-07-21T03:54:17.003Z,14.88
2018-07-21T03:56:47.866Z,14.94
2018-07-21T03:59:17.230Z,15.01
2018-07-21T04:01:46.616Z,15.03
2018-07-21T04:04:16.023Z,15.17
2018-07-21T04:06:45.399Z,15.23
2018-07-21T04:09:14.834Z,15.24
2018-07-21T04:11:44.403Z,15.27
2018-07-21T04:14:13.833Z,15.33
2018-07-21T04:16:43.238Z,15.34
2018-07-21T04:19:12.666Z,15.43
2018-07-21T04:21:42.099Z,15.46
2018-07-21T04:24:11.961Z,15.49
2018-07-21T04:26:41.482Z,15.51
2018-07-21T04:29:10.852Z,15.51
2018-07-21T04:32:17.772Z,15.59
2018-07-21T04:34:47.169Z,15.68
2018-07-21T04:37:16.550Z,15.62
2018-07-21T04:39:46.348Z,15.58
2018-07-21T04:42:15.894Z,15.56
2018-07-21T04:44:45.730Z,15.50
2018-07-21T04:47:15.098Z,15.58
2018-07-21T04:49:44.627Z,15.63
2018-07-21T04:52:14.263Z,15.63
2018-07-21T04:54:43.462Z,15.71
2018-07-21T04:57:12.914Z,15.78
2018-07-21T04:59:42.371Z,15.80
2018-07-21T05:02:12.168Z,15.82
2018-07-21T05:04:41.547Z,15.90
2018-07-21T05:07:10.903Z,16.00
2018-07-21T05:09:40.253Z,16.04
2018-07-21T05:12:09.664Z,16.14
2018-07-21T05:14:39.075Z,16.21
2018-07-21T05:17:08.469Z,16.21
2018-07-21T05:19:38.130Z,16.31
2018-07-21T05:22:07.706Z,16.45
2018-07-21T05:24:37.275Z,16.64
2018-07-21T05:27:06.722Z,16.78
2018-07-21T05:29:36.101Z,17.04
2018-07-21T05:32:05.519Z,17.15
2018-07-21T05:34:34.866Z,17.30
2018-07-21T05:37:04.297Z,17.62
2018-07-21T05:39:33.657Z,17.70
2018-07-21T05:42:03.030Z,17.93
2018-07-21T05:44:32.397Z,17.97
2018-07-21T05:47:01.832Z,17.99
2018-07-21T05:49:31.214Z,18.30
2018-07-21T05:52:00.550Z,18.31
2018-07-21T05:54:30.224Z,18.54
2018-07-21T05:56:59.558Z,18.47
2018-07-21T05:59:28.846Z,18.53
2018-07-21T06:01:58.257Z,18.66
2018-07-21T06:04:27.648Z,18.78
2018-07-21T06:06:56.969Z,18.96
2018-07-21T06:09:26.367Z,19.06
2018-07-21T06:11:55.749Z,18.91
2018-07-21T06:14:25.150Z,18.79
2018-07-21T06:16:54.596Z,18.92
2018-07-21T06:19:24.301Z,18.89
2018-07-21T06:21:53.685Z,19.05
2018-07-21T06:24:23.087Z,18.84
2018-07-21T06:26:52.934Z,18.92
2018-07-21T06:29:22.422Z,18.83
2018-07-21T06:31:51.833Z,18.83
2018-07-21T06:34:21.247Z,18.96
2018-07-21T06:36:50.586Z,19.05
2018-07-21T06:39:19.938Z,19.07
2018-07-21T06:41:49.461Z,19.10
2018-07-21T06:44:18.790Z,19.27
2018-07-21T06:46:48.231Z,19.37
2018-07-21T06:49:17.662Z,19.53
2018-07-21T06:51:47.055Z,19.43
2018-07-21T06:54:16.391Z,19.59
2018-07-21T06:56:46.515Z,19.86
2018-07-21T06:59:15.910Z,20.06
2018-07-21T07:01:45.257Z,20.02
2018-07-21T07:04:14.617Z,20.07
2018-07-21T07:06:44.112Z,20.23
2018-07-21T07:09:13.493Z,20.46
2018-07-21T07:11:42.881Z,20.47
2018-07-21T07:14:12.634Z,20.44
2018-07-21T07:16:41.989Z,20.38
2018-07-21T07:19:11.405Z,20.31
2018-07-21T07:21:40.507Z,20.33
2018-07-21T07:24:09.926Z,20.35
2018-07-21T07:26:39.554Z,20.34
2018-07-21T07:29:08.907Z,20.37
2018-07-21T07:31:38.275Z,20.48
2018-07-21T07:34:07.647Z,20.51
2018-07-21T07:36:37.053Z,20.50
2018-07-21T07:39:09.530Z,20.76
2018-07-21T07:41:39.325Z,20.90
2018-07-21T07:44:08.986Z,21.01
2018-07-21T07:46:38.345Z,21.18
2018-07-21T07:49:07.898Z,21.25
2018-07-21T07:51:37.271Z,21.34
2018-07-21T07:54:06.648Z,21.51
2018-07-21T07:56:36.017Z,21.69
2018-07-21T07:59:05.457Z,21.69
2018-07-21T08:01:34.845Z,21.85
2018-07-21T08:04:04.258Z,22.05
2018-07-21T08:06:33.661Z,22.11
2018-07-21T08:09:03.332Z,22.39
2018-07-21T08:11:33.195Z,22.17
2018-07-21T08:14:02.578Z,22.32
2018-07-21T08:16:31.916Z,22.17
2018-07-21T08:19:01.438Z,22.19
2018-07-21T08:21:30.809Z,22.47
2018-07-21T08:24:00.479Z,22.52
2018-07-21T08:26:29.845Z,22.86
2018-07-21T08:28:59.233Z,22.96
2018-07-21T08:31:28.550Z,23.20
2018-07-21T08:33:57.950Z,23.40
2018-07-21T08:36:27.434Z,23.35
2018-07-21T08:38:56.930Z,23.16
2018-07-21T08:41:26.366Z,23.14
2018-07-21T08:43:55.741Z,23.29
2018-07-21T08:48:53.530Z,23.85
2018-07-21T08:51:23.134Z,24.01
2018-07-21T08:53:52.514Z,24.08
2018-07-21T08:56:22.101Z,23.67
2018-07-21T08:58:51.451Z,23.48
2018-07-21T09:01:20.890Z,23.61
2018-07-21T09:03:50.225Z,23.62
2018-07-21T09:06:19.653Z,23.57
2018-07-21T09:08:49.085Z,23.53
2018-07-21T09:11:18.447Z,23.42
2018-07-21T09:13:47.899Z,23.53
2018-07-21T09:16:17.824Z,23.79
2018-07-21T09:18:47.257Z,23.83
2018-07-21T09:21:16.744Z,23.94
2018-07-21T09:23:46.131Z,23.64
2018-07-21T09:26:15.547Z,23.40
2018-07-21T09:28:44.901Z,23.72
2018-07-21T09:31:14.437Z,23.78
2018-07-21T09:33:43.804Z,23.89
2018-07-21T09:36:13.194Z,23.77
2018-07-21T09:38:42.638Z,23.98
2018-07-21T09:41:12.072Z,24.21
2018-07-21T09:43:41.471Z,24.38
2018-07-21T09:46:10.866Z,24.48
2018-07-21T09:48:40.184Z,24.56
2018-07-21T09:51:09.554Z,24.26
2018-07-21T09:53:38.997Z,24.33
2018-07-21T09:56:08.391Z,24.40
2018-07-21T09:58:37.753Z,24.24
2018-07-21T10:01:07.170Z,24.14
2018-07-21T10:03:36.674Z,24.26
2018-07-21T10:06:06.048Z,24.50
2018-07-21T10:08:35.396Z,24.27
2018-07-21T10:11:04.834Z,24.19
2018-07-21T10:13:34.052Z,24.10
2018-07-21T10:16:03.506Z,24.13
2018-07-21T10:18:32.949Z,24.53
2018-07-21T10:21:02.808Z,24.91
2018-07-21T10:23:32.193Z,25.16
2018-07-21T10:27:04.530Z,25.31
2018-07-21T10:29:34.583Z,25.61
2018-07-21T10:32:03.967Z,25.39
2018-07-21T10:34:33.354Z,25.50
2018-07-21T10:37:02.709Z,25.51
2018-07-21T10:39:32.127Z,25.74
2018-07-21T10:42:01.594Z,26.10
2018-07-21T10:44:30.941Z,26.06
2018-07-21T10:47:00.061Z,26.06
2018-07-21T10:49:29.453Z,25.97
2018-07-21T10:51:58.851Z,25.69
2018-07-21T10:54:28.466Z,25.87
2018-07-21T10:56:57.854Z,25.85
2018-07-21T10:59:27.272Z,25.99
2018-07-21T11:01:56.913Z,26.08
2018-07-21T11:04:26.253Z,26.04
2018-07-21T11:06:55.693Z,25.99
2018-07-21T11:09:25.118Z,26.09
2018-07-21T11:11:54.484Z,26.26
2018-07-21T11:14:23.883Z,26.35
2018-07-21T11:16:53.314Z,26.57
2018-07-21T11:19:22.753Z,26.85
2018-07-21T11:21:51.996Z,26.95
2018-07-21T11:24:21.557Z,26.47
2018-07-21T11:26:50.647Z,26.81
2018-07-21T11:29:19.995Z,26.67
2018-07-21T11:31:49.406Z,26.80
2018-07-21T11:34:18.788Z,26.99
2018-07-21T11:36:48.469Z,26.84
2018-07-21T11:39:17.649Z,27.09
2018-07-21T11:41:47.035Z,27.34
2018-07-21T11:44:16.691Z,27.57
2018-07-21T11:46:46.044Z,27.49
2018-07-21T11:49:15.429Z,27.62
2018-07-21T11:51:45.102Z,27.08
2018-07-21T11:54:14.256Z,26.96
2018-07-21T11:56:44.229Z,27.17
2018-07-21T11:59:13.726Z,27.43
2018-07-21T12:01:43.174Z,27.71
2018-07-21T12:04:12.630Z,28.11
2018-07-21T12:06:41.708Z,28.23
2018-07-21T12:09:11.090Z,28.35
2018-07-21T12:11:40.730Z,28.40
2018-07-21T12:14:10.101Z,28.66
2018-07-21T12:16:39.415Z,28.32
2018-07-21T12:19:08.845Z,28.67
2018-07-21T12:21:38.346Z,28.80
2018-07-21T12:24:07.822Z,29.49
2018-07-21T12:26:37.270Z,30.12
2018-07-21T12:29:07.270Z,29.81
2018-07-21T12:31:36.685Z,29.90
2018-07-21T12:34:06.721Z,30.82
2018-07-21T12:36:36.221Z,31.49
2018-07-21T12:39:08.654Z,31.10
2018-07-21T12:41:38.539Z,30.42
2018-07-21T12:44:08.001Z,30.26
2018-07-21T12:46:37.359Z,29.76
2018-07-21T12:49:06.766Z,29.97
2018-07-21T12:51:36.218Z,30.59
2018-07-21T12:54:05.717Z,30.15
2018-07-21T12:56:35.185Z,30.88
2018-07-21T12:59:04.622Z,31.29
2018-07-21T13:01:33.991Z,32.99
2018-07-21T13:04:03.244Z,34.17
2018-07-21T13:06:32.393Z,33.60
2018-07-21T13:09:01.786Z,35.72
2018-07-21T13:11:31.239Z,36.74
2018-07-21T13:14:00.669Z,35.53
2018-07-21T13:16:30.122Z,36.59
2018-07-21T13:18:59.521Z,36.78
2018-07-21T13:21:28.943Z,36.58
2018-07-21T13:23:58.322Z,35.64
2018-07-21T13:26:27.749Z,33.47
2018-07-21T13:28:57.261Z,34.95
2018-07-21T13:31:26.659Z,34.76
2018-07-21T13:33:56.019Z,36.29
2018-07-21T13:36:25.450Z,37.02
2018-07-21T13:38:54.779Z,37.32
2018-07-21T13:41:24.153Z,36.53
2018-07-21T13:43:53.305Z,37.34
2018-07-21T13:46:22.659Z,36.02
2018-07-21T13:48:52.057Z,35.85
2018-07-21T13:51:21.521Z,36.27
2018-07-21T13:53:50.980Z,34.92
2018-07-21T13:56:20.489Z,34.87
2018-07-21T13:58:49.918Z,33.17
2018-07-21T14:01:19.428Z,34.18
2018-07-21T14:03:49.971Z,35.97
2018-07-21T14:06:20.329Z,37.43
2018-07-21T14:08:49.678Z,38.52
2018-07-21T14:11:19.079Z,38.21
2018-07-21T14:13:48.557Z,38.28
2018-07-21T14:16:17.936Z,38.27
2018-07-21T14:18:47.353Z,37.10
2018-07-21T14:21:17.002Z,36.69
2018-07-21T14:23:46.414Z,36.22
2018-07-21T14:26:15.793Z,37.02
2018-07-21T14:28:45.230Z,35.37
2018-07-21T14:31:14.450Z,33.26
2018-07-21T14:33:43.778Z,32.36
2018-07-21T14:36:13.422Z,31.88
2018-07-21T14:38:42.701Z,31.89
2018-07-21T14:41:12.106Z,30.94
2018-07-21T14:43:41.746Z,30.45
2018-07-21T14:46:11.247Z,30.07
2018-07-21T14:48:40.614Z,29.64
2018-07-21T14:51:10.479Z,29.38
2018-07-21T14:53:39.838Z,29.15
2018-07-21T14:56:09.174Z,28.71
2018-07-21T14:58:38.571Z,28.53
2018-07-21T15:01:08.080Z,27.91
2018-07-21T15:03:37.569Z,27.78
2018-07-21T15:06:06.978Z,28.21
2018-07-21T15:08:36.334Z,27.69
2018-07-21T15:11:05.809Z,28.05
2018-07-21T15:13:35.213Z,27.77
2018-07-21T15:16:04.617Z,27.81
2018-07-21T15:18:33.965Z,27.82
2018-07-21T15:21:03.398Z,28.03
2018-07-21T15:23:32.781Z,28.12
2018-07-21T15:26:02.129Z,28.18
2018-07-21T15:28:31.544Z,28.11
2018-07-21T15:31:01.012Z,27.69
2018-07-21T15:33:30.369Z,27.61
2018-07-21T15:35:59.835Z,27.44
2018-07-21T15:38:29.209Z,27.56
2018-07-21T15:40:58.553Z,27.59
2018-07-21T15:43:27.939Z,27.63
2018-07-21T15:45:57.309Z,27.20
2018-07-21T15:48:26.686Z,27.26
2018-07-21T15:50:56.029Z,27.28
2018-07-21T15:53:25.446Z,27.23
2018-07-21T15:55:54.817Z,27.16
2018-07-21T15:58:24.250Z,27.25
2018-07-21T16:00:53.676Z,26.87
2018-07-21T16:03:23.093Z,26.95
2018-07-21T16:05:52.433Z,26.88
2018-07-21T16:08:21.823Z,26.87
2018-07-21T16:10:51.502Z,26.82
2018-07-21T16:13:20.960Z,26.62
2018-07-21T16:15:50.390Z,26.61
2018-07-21T16:18:19.818Z,26.60
2018-07-21T16:20:49.294Z,26.53
2018-07-21T16:23:19.213Z,26.51
2018-07-21T16:25:49.310Z,26.67
2018-07-21T16:28:22.318Z,26.66
2018-07-21T16:30:51.746Z,26.76
2018-07-21T16:33:21.284Z,26.56
2018-07-21T16:35:50.672Z,26.39
2018-07-21T16:38:27.745Z,26.41
2018-07-21T16:40:57.353Z,26.35
2018-07-21T16:43:26.784Z,26.25
2018-07-21T16:45:56.141Z,26.46
2018-07-21T16:48:25.557Z,26.52
2018-07-21T16:50:55.048Z,26.40
2018-07-21T16:53:24.474Z,26.40
2018-07-21T16:55:53.831Z,26.20
2018-07-21T16:58:23.286Z,26.39
2018-07-21T17:00:53.146Z,26.34
2018-07-21T17:03:22.494Z,26.16
2018-07-21T17:05:52.090Z,26.15
2018-07-21T17:08:21.794Z,26.04
2018-07-21T17:10:51.222Z,25.85
2018-07-21T17:13:20.576Z,25.81
2018-07-21T17:15:50.033Z,25.79
2018-07-21T17:18:19.431Z,25.75
2018-07-21T17:20:49.154Z,25.78
2018-07-21T17:23:19.673Z,25.75
2018-07-21T17:25:49.187Z,25.87
2018-07-21T17:28:19.178Z,25.72
2018-07-21T17:30:48.585Z,25.72
2018-07-21T17:33:18.226Z,25.64
2018-07-21T17:35:47.658Z,25.71
2018-07-21T17:38:16.998Z,25.77
2018-07-21T17:40:46.541Z,25.86
2018-07-21T17:43:15.945Z,25.81
2018-07-21T17:45:45.321Z,25.82
2018-07-21T17:48:14.825Z,25.79
2018-07-21T17:50:44.256Z,25.84
2018-07-21T17:53:13.794Z,25.87
2018-07-21T17:55:43.244Z,25.91
2018-07-21T17:58:12.708Z,25.97
2018-07-21T18:00:42.036Z,25.94
2018-07-21T18:03:11.442Z,25.96
2018-07-21T18:05:40.846Z,25.94
2018-07-21T18:08:10.323Z,25.91
2018-07-21T18:10:39.802Z,25.79
2018-07-21T18:13:09.317Z,25.60
2018-07-21T18:15:38.764Z,25.47
2018-07-21T18:18:08.209Z,25.30
2018-07-21T18:20:37.632Z,25.11
2018-07-21T18:23:07.091Z,25.05
2018-07-21T18:25:36.504Z,24.93
2018-07-21T18:28:05.827Z,24.96
2018-07-21T18:30:35.219Z,24.80
2018-07-21T18:33:04.761Z,24.72
2018-07-21T18:35:34.094Z,24.73
2018-07-21T18:38:03.554Z,24.51
2018-07-21T18:40:32.649Z,24.48
2018-07-21T18:43:02.023Z,24.37
2018-07-21T18:45:31.380Z,24.30
2018-07-21T18:48:00.813Z,24.11
2018-07-21T18:50:30.537Z,23.98
2018-07-21T18:52:59.958Z,23.90
2018-07-21T18:55:29.588Z,23.70
2018-07-21T18:57:58.675Z,23.75
2018-07-21T19:00:28.030Z,23.61
2018-07-21T19:02:57.470Z,23.53
2018-07-21T19:05:26.845Z,23.34
2018-07-21T19:07:56.262Z,23.44
2018-07-21T19:10:25.657Z,23.23
2018-07-21T19:12:55.255Z,23.23
2018-07-21T19:15:29.952Z,23.10
2018-07-21T19:17:59.434Z,22.92
2018-07-21T19:20:34.417Z,22.85
2018-07-21T19:23:03.826Z,22.85
2018-07-21T19:25:38.507Z,22.70
2018-07-21T19:28:08.094Z,22.62
2018-07-21T19:30:37.499Z,22.63
2018-07-21T19:33:06.939Z,22.62
2018-07-21T19:35:36.273Z,22.59
2018-07-21T19:38:06.854Z,22.56
2018-07-21T19:40:36.365Z,22.56
2018-07-21T19:43:05.823Z,22.59
2018-07-21T19:45:35.248Z,22.67
2018-07-21T19:48:04.658Z,22.54
2018-07-21T19:50:34.070Z,22.53
2018-07-21T19:53:06.714Z,22.63
2018-07-21T19:55:36.062Z,22.66
2018-07-21T19:58:05.464Z,22.51
2018-07-21T20:00:36.133Z,22.48
2018-07-21T20:03:06.118Z,22.51
2018-07-21T20:05:35.557Z,22.52
2018-07-21T20:08:04.911Z,22.50
2018-07-21T20:10:34.305Z,22.47
2018-07-21T20:13:06.437Z,22.46
2018-07-21T20:15:36.659Z,22.46
2018-07-21T20:18:06.205Z,22.42
2018-07-21T20:20:35.590Z,22.31
2018-07-21T20:23:05.198Z,22.27
2018-07-21T20:25:35.163Z,22.18
2018-07-21T20:28:04.735Z,22.07
2018-07-21T20:30:34.159Z,22.00
2018-07-21T20:33:03.544Z,21.94
2018-07-21T20:35:32.935Z,21.94
2018-07-21T20:38:02.383Z,21.93
2018-07-21T20:40:31.745Z,21.86
2018-07-21T20:43:01.158Z,21.75
2018-07-21T20:45:30.644Z,21.61
2018-07-21T20:48:00.089Z,21.50
2018-07-21T20:50:29.617Z,21.39
2018-07-21T20:52:58.791Z,21.34
2018-07-21T20:55:28.185Z,21.17
2018-07-21T20:58:01.694Z,20.95
2018-07-21T21:00:32.533Z,20.86
2018-07-21T21:03:02.191Z,20.85
2018-07-21T21:05:31.674Z,20.88
2018-07-21T21:08:00.826Z,20.84
2018-07-21T21:10:30.247Z,20.85
2018-07-21T21:12:59.668Z,20.95
2018-07-21T21:15:29.052Z,20.96
2018-07-21T21:17:58.430Z,20.98
2018-07-21T21:20:27.837Z,20.96
2018-07-21T21:22:57.222Z,20.96
2018-07-21T21:25:26.594Z,20.94
2018-07-21T21:27:56.035Z,20.91
2018-07-21T21:30:25.427Z,20.86
2018-07-21T21:32:54.802Z,20.72
2018-07-21T21:35:24.305Z,20.64
2018-07-21T21:38:00.221Z,20.61
2018-07-21T21:40:29.643Z,20.59
2018-07-21T21:42:59.211Z,20.59
2018-07-21T21:45:28.891Z,20.58
2018-07-21T21:47:58.287Z,20.60
2018-07-21T21:50:27.687Z,20.68
2018-07-21T21:52:57.106Z,20.72
2018-07-21T21:55:26.477Z,20.63
2018-07-21T21:57:55.994Z,20.64
2018-07-21T22:00:26.987Z,20.56
2018-07-21T22:02:56.390Z,20.48
2018-07-21T22:05:25.831Z,20.42
2018-07-21T22:07:55.226Z,20.34
2018-07-21T22:10:24.664Z,20.28
2018-07-21T22:12:54.231Z,20.09
2018-07-21T22:15:23.758Z,20.01
2018-07-21T22:17:53.131Z,19.91
2018-07-21T22:20:22.551Z,19.75
2018-07-21T22:22:51.935Z,19.73
2018-07-21T22:25:21.414Z,19.73
2018-07-21T22:27:50.913Z,19.75
2018-07-21T22:30:21.606Z,19.78
2018-07-21T22:32:51.009Z,19.83
2018-07-21T22:35:20.379Z,19.90
2018-07-21T22:37:49.738Z,19.96
2018-07-21T22:40:19.118Z,20.01
2018-07-21T22:42:48.526Z,20.08
2018-07-21T22:45:17.925Z,20.18
2018-07-21T22:47:47.832Z,20.25
2018-07-21T22:50:17.304Z,20.33
2018-07-21T22:52:47.029Z,20.42
2018-07-21T22:55:16.474Z,20.53
2018-07-21T22:57:45.854Z,20.57
2018-07-21T23:00:15.317Z,20.61
2018-07-21T23:02:44.729Z,20.64
2018-07-21T23:05:14.078Z,20.62
2018-07-21T23:07:43.609Z,20.60
2018-07-21T23:10:12.990Z,20.66
2018-07-21T23:12:42.365Z,20.63
2018-07-21T23:15:11.790Z,20.78
2018-07-21T23:17:41.353Z,20.76
2018-07-21T23:20:10.658Z,20.69
2018-07-21T23:22:40.118Z,20.70
2018-07-21T23:25:11.482Z,20.67
2018-07-21T23:27:40.986Z,20.64
2018-07-21T23:30:11.583Z,20.68
2018-07-21T23:32:40.972Z,20.71
2018-07-21T23:35:11.355Z,20.76
2018-07-21T23:37:40.683Z,20.74
2018-07-21T23:40:09.769Z,20.61
2018-07-21T23:42:39.150Z,20.61
2018-07-21T23:45:08.554Z,20.57
2018-07-21T23:47:37.891Z,20.52
2018-07-21T23:50:07.790Z,20.51
2018-07-21T23:52:37.176Z,20.49
2018-07-21T23:55:07.849Z,20.64
2018-07-21T23:57:37.649Z,20.79
